createdAt,value
2018-02-18T00:00:39.065Z,-0.10
2018-02-18T00:05:33.522Z,-0.10
2018-02-18T00:10:28.711Z,-0.20
2018-02-18T00:15:24.118Z,-0.30
2018-02-18T00:20:18.617Z,-0.30
2018-02-18T00:25:12.972Z,-0.30
2018-02-18T00:30:07.800Z,-0.40
2018-02-18T00:35:03.166Z,-0.40
2018-02-18T00:39:57.661Z,-0.50
2018-02-18T00:44:51.979Z,-0.40
2018-02-18T00:49:46.549Z,-0.50
2018-02-18T00:54:41.990Z,-0.50
2018-02-18T00:59:36.413Z,-0.50
2018-02-18T01:04:30.711Z,-0.50
2018-02-18T01:09:25.073Z,-0.50
2018-02-18T01:14:20.238Z,-0.60
2018-02-18T01:19:14.537Z,-0.60
2018-02-18T01:24:08.825Z,-0.60
2018-02-18T01:29:03.134Z,-0.60
2018-02-18T01:33:57.497Z,-0.70
2018-02-18T01:38:52.505Z,-0.80
2018-02-18T01:43:47.054Z,-0.80
2018-02-18T01:48:41.408Z,-0.80
2018-02-18T01:53:37.222Z,-1.00
2018-02-18T01:58:31.509Z,-1.00
2018-02-18T02:03:25.798Z,-1.10
2018-02-18T02:08:20.118Z,-1.20
2018-02-18T02:13:14.393Z,-1.20
2018-02-18T02:18:08.668Z,-1.20
2018-02-18T02:23:03.855Z,-1.10
2018-02-18T02:27:58.133Z,-1.10
2018-02-18T02:32:52.404Z,-1.10
2018-02-18T02:37:46.521Z,-1.10
2018-02-18T02:42:40.801Z,-1.20
2018-02-18T02:47:35.091Z,-1.20
2018-02-18T02:52:30.146Z,-1.30
2018-02-18T02:57:24.436Z,-1.30
2018-02-18T03:02:18.740Z,-1.30
2018-02-18T03:07:13.039Z,-1.20
2018-02-18T03:12:07.323Z,-1.10
2018-02-18T03:17:01.605Z,-1.00
2018-02-18T03:21:56.662Z,-1.10
2018-02-18T03:26:50.940Z,-1.10
2018-02-18T03:31:45.220Z,-1.20
2018-02-18T03:36:41.103Z,-1.20
2018-02-18T03:41:35.402Z,-1.20
2018-02-18T03:46:29.883Z,-1.20
2018-02-18T03:51:24.156Z,-1.30
2018-02-18T03:56:19.205Z,-1.40
2018-02-18T04:01:13.626Z,-1.40
2018-02-18T04:06:07.985Z,-1.40
2018-02-18T04:11:03.154Z,-1.50
2018-02-18T04:15:57.428Z,-1.50
2018-02-18T04:20:52.037Z,-1.50
2018-02-18T04:25:46.299Z,-1.60
2018-02-18T04:30:40.795Z,-1.70
2018-02-18T04:35:35.064Z,-1.70
2018-02-18T04:40:29.345Z,-1.80
2018-02-18T04:45:23.667Z,-1.90
2018-02-18T04:50:17.979Z,-1.90
2018-02-18T04:55:12.285Z,-1.90
2018-02-18T05:00:06.593Z,-1.90
2018-02-18T05:05:00.883Z,-1.80
2018-02-18T05:09:55.173Z,-1.70
2018-02-18T05:14:49.457Z,-1.70
2018-02-18T05:19:43.973Z,-1.70
2018-02-18T05:24:38.306Z,-1.70
2018-02-18T05:29:32.584Z,-1.70
2018-02-18T05:34:26.636Z,-1.70
2018-02-18T05:39:21.695Z,-1.60
2018-02-18T05:44:18.444Z,-1.60
2018-02-18T05:49:12.740Z,-1.60
2018-02-18T05:54:07.052Z,-1.70
2018-02-18T05:59:01.615Z,-1.60
2018-02-18T06:03:56.778Z,-1.70
2018-02-18T06:08:51.277Z,-1.70
2018-02-18T06:13:45.693Z,-1.60
2018-02-18T06:18:39.981Z,-1.60
2018-02-18T06:23:34.384Z,-1.60
2018-02-18T06:28:28.811Z,-1.60
2018-02-18T06:33:23.247Z,-1.60
2018-02-18T06:38:18.295Z,-1.60
2018-02-18T06:43:12.581Z,-1.60
2018-02-18T06:48:07.651Z,-1.50
2018-02-18T06:53:01.937Z,-1.50
2018-02-18T06:57:56.223Z,-1.40
2018-02-18T07:02:50.524Z,-1.40
2018-02-18T07:07:45.057Z,-1.30
2018-02-18T07:12:39.510Z,-1.20
2018-02-18T07:17:34.582Z,-1.00
2018-02-18T07:22:28.874Z,-1.00
2018-02-18T07:27:23.310Z,-0.90
2018-02-18T07:32:17.603Z,-0.80
2018-02-18T07:37:11.885Z,-0.60
2018-02-18T07:42:07.912Z,-0.40
2018-02-18T07:47:02.210Z,-0.20
2018-02-18T07:51:56.511Z,1.40
2018-02-18T07:56:50.802Z,5.00
2018-02-18T08:01:45.243Z,7.90
2018-02-18T08:06:39.540Z,9.50
2018-02-18T08:11:34.023Z,10.80
2018-02-18T08:16:28.311Z,12.30
2018-02-18T08:21:22.594Z,13.70
2018-02-18T08:26:16.899Z,15.10
2018-02-18T08:31:11.185Z,15.50
2018-02-18T08:36:06.512Z,16.20
2018-02-18T08:41:00.863Z,16.10
2018-02-18T08:45:55.163Z,16.80
2018-02-18T08:50:49.492Z,16.80
2018-02-18T08:55:43.997Z,17.70
2018-02-18T09:00:39.271Z,17.50
2018-02-18T09:05:33.667Z,17.50
2018-02-18T09:10:28.855Z,18.00
2018-02-18T09:15:23.969Z,20.70
2018-02-18T09:20:19.137Z,21.50
2018-02-18T09:25:13.427Z,21.40
2018-02-18T09:30:08.429Z,22.40
2018-02-18T09:35:03.136Z,24.00
2018-02-18T09:39:58.213Z,27.40
2018-02-18T09:44:52.891Z,27.30
2018-02-18T09:49:47.751Z,27.70
2018-02-18T09:54:42.612Z,26.30
2018-02-18T09:59:36.967Z,24.20
2018-02-18T10:04:31.485Z,23.20
2018-02-18T10:09:26.324Z,17.50
2018-02-18T10:14:20.674Z,13.00
2018-02-18T10:19:15.916Z,7.60
2018-02-18T10:24:10.177Z,7.50
2018-02-18T10:29:04.481Z,6.40
2018-02-18T10:33:58.877Z,5.80
2018-02-18T10:38:53.224Z,5.50
2018-02-18T10:43:47.699Z,5.20
2018-02-18T10:48:42.042Z,5.20
2018-02-18T10:53:37.230Z,5.20
2018-02-18T10:58:31.745Z,5.20
2018-02-18T11:03:26.681Z,5.20
2018-02-18T11:08:21.739Z,5.10
2018-02-18T11:13:16.215Z,5.10
2018-02-18T11:18:10.658Z,5.10
2018-02-18T11:23:05.034Z,5.30
2018-02-18T11:27:59.848Z,5.30
2018-02-18T11:32:54.165Z,5.40
2018-02-18T11:37:48.786Z,5.60
2018-02-18T11:42:43.223Z,5.70
2018-02-18T11:47:37.702Z,5.80
2018-02-18T11:52:32.837Z,5.90
2018-02-18T11:57:27.476Z,6.00
2018-02-18T12:02:21.873Z,6.10
2018-02-18T12:07:17.110Z,6.30
2018-02-18T12:12:11.497Z,6.20
2018-02-18T12:17:05.834Z,6.40
2018-02-18T12:22:00.378Z,6.40
2018-02-18T12:26:54.694Z,6.60
2018-02-18T12:31:49.576Z,6.70
2018-02-18T12:36:43.880Z,6.70
2018-02-18T12:41:38.228Z,6.80
2018-02-18T12:46:32.557Z,6.80
2018-02-18T12:51:27.286Z,6.90
2018-02-18T12:56:21.577Z,6.90
2018-02-18T13:01:15.900Z,6.90
2018-02-18T13:06:10.330Z,7.00
2018-02-18T13:11:04.949Z,7.00
2018-02-18T13:15:59.551Z,7.00
2018-02-18T13:20:54.830Z,7.10
2018-02-18T13:25:49.361Z,7.10
2018-02-18T13:30:43.621Z,7.10
2018-02-18T13:35:37.763Z,7.00
2018-02-18T13:40:32.070Z,7.00
2018-02-18T13:45:26.561Z,7.00
2018-02-18T13:50:20.865Z,7.20
2018-02-18T13:55:15.147Z,7.30
2018-02-18T14:00:09.425Z,7.20
2018-02-18T14:05:03.712Z,7.10
2018-02-18T14:09:58.880Z,7.00
2018-02-18T14:14:53.261Z,7.00
2018-02-18T14:19:47.755Z,7.00
2018-02-18T14:24:41.904Z,7.00
2018-02-18T14:29:36.268Z,7.00
2018-02-18T14:34:31.630Z,7.10
2018-02-18T14:39:26.023Z,7.00
2018-02-18T14:44:37.329Z,7.00
2018-02-18T14:49:48.776Z,7.10
2018-02-18T15:10:43.439Z,7.10
2018-02-18T15:15:37.828Z,7.10
2018-02-18T15:20:32.235Z,7.10
2018-02-18T15:25:26.535Z,7.00
2018-02-18T15:30:20.804Z,7.00
2018-02-18T15:35:15.110Z,6.90
2018-02-18T15:40:09.409Z,6.90
2018-02-18T15:45:03.855Z,6.80
2018-02-18T15:49:58.154Z,6.80
2018-02-18T15:54:52.743Z,6.70
2018-02-18T15:59:47.115Z,6.60
2018-02-18T16:04:42.165Z,6.40
2018-02-18T16:09:36.581Z,6.40
2018-02-18T16:14:31.896Z,6.20
2018-02-18T16:19:26.154Z,6.20
2018-02-18T16:24:21.418Z,6.00
2018-02-18T16:29:15.828Z,6.00
2018-02-18T16:34:10.131Z,5.90
2018-02-18T16:39:04.187Z,5.80
2018-02-18T16:43:58.482Z,5.80
2018-02-18T16:48:53.560Z,5.70
2018-02-18T16:53:47.989Z,5.70
2018-02-18T16:58:43.561Z,5.50
2018-02-18T17:03:37.866Z,5.50
2018-02-18T17:08:32.173Z,5.40
2018-02-18T17:13:26.473Z,5.20
2018-02-18T17:18:21.272Z,5.10
2018-02-18T17:23:17.786Z,4.90
2018-02-18T17:28:12.086Z,4.80
2018-02-18T17:33:06.362Z,4.60
2018-02-18T17:38:00.653Z,4.50
2018-02-18T17:42:54.955Z,4.40
2018-02-18T17:47:49.264Z,4.40
2018-02-18T17:52:43.689Z,4.30
2018-02-18T17:57:38.054Z,4.30
2018-02-18T18:02:32.389Z,4.20
2018-02-18T18:07:26.698Z,4.10
2018-02-18T18:12:21.404Z,4.10
2018-02-18T18:17:15.715Z,3.90
2018-02-18T18:22:10.765Z,3.80
2018-02-18T18:27:04.843Z,3.80
2018-02-18T18:31:59.717Z,3.70
2018-02-18T18:36:53.983Z,3.60
2018-02-18T18:41:48.285Z,3.50
2018-02-18T18:46:42.929Z,3.40
2018-02-18T18:51:37.243Z,3.40
2018-02-18T18:56:32.325Z,3.20
2018-02-18T19:01:26.866Z,3.20
2018-02-18T19:06:21.205Z,3.10
2018-02-18T19:11:15.482Z,3.10
2018-02-18T19:16:10.580Z,3.00
2018-02-18T19:21:05.116Z,3.00
2018-02-18T19:26:00.179Z,3.00
2018-02-18T19:30:54.501Z,3.00
2018-02-18T19:35:48.799Z,3.00
2018-02-18T19:40:43.230Z,3.00
2018-02-18T19:45:37.515Z,2.90
2018-02-18T19:50:31.822Z,3.00
2018-02-18T19:55:26.901Z,3.00
2018-02-18T20:00:21.201Z,3.00
2018-02-18T20:05:16.547Z,2.90
2018-02-18T20:10:10.869Z,2.80
2018-02-18T20:15:05.327Z,2.80
2018-02-18T20:19:59.711Z,2.70
2018-02-18T20:24:54.026Z,2.70
2018-02-18T20:29:48.325Z,2.60
2018-02-18T20:34:42.850Z,2.50
2018-02-18T20:39:37.165Z,2.40
2018-02-18T20:44:31.648Z,2.40
2018-02-18T20:49:25.967Z,2.40
2018-02-18T20:54:20.272Z,2.30
2018-02-18T20:59:14.574Z,2.20
2018-02-18T21:04:09.059Z,2.10
2018-02-18T21:09:03.972Z,2.00
2018-02-18T21:13:58.281Z,2.00
2018-02-18T21:18:52.573Z,1.90
2018-02-18T21:23:46.873Z,1.80
2018-02-18T21:28:41.183Z,1.80
2018-02-18T21:33:35.582Z,1.70
2018-02-18T21:38:30.181Z,1.70
2018-02-18T21:43:24.633Z,1.70
2018-02-18T21:48:19.686Z,1.60
2018-02-18T21:53:13.964Z,1.50
2018-02-18T21:58:10.226Z,1.60
2018-02-18T22:03:07.014Z,1.50
2018-02-18T22:08:01.291Z,1.50
2018-02-18T22:12:55.710Z,1.50
2018-02-18T22:17:50.127Z,1.50
2018-02-18T22:22:44.646Z,1.40
2018-02-18T22:27:38.966Z,1.30
2018-02-18T22:32:34.002Z,1.20
2018-02-18T22:37:29.083Z,1.10
2018-02-18T22:42:23.911Z,1.10
2018-02-18T22:47:19.065Z,1.00
2018-02-18T22:52:14.127Z,0.90
2018-02-18T22:57:08.726Z,0.90
2018-02-18T23:02:03.018Z,0.80
2018-02-18T23:07:03.162Z,0.80
2018-02-18T23:11:57.494Z,0.70
2018-02-18T23:16:51.770Z,0.70
2018-02-18T23:21:46.213Z,0.70
2018-02-18T23:26:40.508Z,0.60
2018-02-18T23:31:34.957Z,0.50
2018-02-18T23:36:29.297Z,0.50
2018-02-18T23:41:24.008Z,0.50
2018-02-18T23:46:18.301Z,0.50
2018-02-18T23:51:13.512Z,0.40
2018-02-18T23:56:07.929Z,0.40
